sensor_id;sensor_type;location;lat;lon;timestamp;P1;durP1;ratioP1;P2;durP2;ratioP2
7406;SDS011;3745;56.964;24.128;2023-03-13T00:01:14;1.50;;;1.40;;
7406;SDS011;3745;56.964;24.128;2023-03-13T00:03:39;3.40;;;1.40;;
7406;SDS011;3745;56.964;24.128;2023-03-13T00:06:05;1.47;;;1.27;;
7406;SDS011;3745;56.964;24.128;2023-03-13T00:08:31;3.87;;;1.63;;
7406;SDS011;3745;56.964;24.128;2023-03-13T00:11:00;4.73;;;1.30;;
7406;SDS011;3745;56.964;24.128;2023-03-13T00:13:27;2.07;;;1.37;;
7406;SDS011;3745;56.964;24.128;2023-03-13T00:15:59;1.93;;;1.50;;
7406;SDS011;3745;56.964;24.128;2023-03-13T00:18:26;1.50;;;1.40;;
7406;SDS011;3745;56.964;24.128;2023-03-13T00:20:59;1.30;;;1.20;;
7406;SDS011;3745;56.964;24.128;2023-03-13T00:23:29;1.30;;;1.20;;
7406;SDS011;3745;56.964;24.128;2023-03-13T00:25:59;1.97;;;1.43;;
7406;SDS011;3745;56.964;24.128;2023-03-13T00:28:29;9.47;;;1.33;;
7406;SDS011;3745;56.964;24.128;2023-03-13T00:31:01;3.87;;;1.10;;
7406;SDS011;3745;56.964;24.128;2023-03-13T00:33:30;3.00;;;1.10;;
7406;SDS011;3745;56.964;24.128;2023-03-13T00:36:00;2.37;;;1.53;;
7406;SDS011;3745;56.964;24.128;2023-03-13T00:38:27;2.37;;;1.30;;
7406;SDS011;3745;56.964;24.128;2023-03-13T00:40:57;1.90;;;1.20;;
7406;SDS011;3745;56.964;24.128;2023-03-13T00:43:27;1.10;;;1.10;;
7406;SDS011;3745;56.964;24.128;2023-03-13T00:45:53;1.13;;;1.07;;
7406;SDS011;3745;56.964;24.128;2023-03-13T00:48:19;1.93;;;1.40;;
7406;SDS011;3745;56.964;24.128;2023-03-13T00:50:44;1.90;;;0.90;;
7406;SDS011;3745;56.964;24.128;2023-03-13T00:53:10;1.60;;;1.17;;
7406;SDS011;3745;56.964;24.128;2023-03-13T00:55:35;1.50;;;1.40;;
7406;SDS011;3745;56.964;24.128;2023-03-13T00:58:01;1.67;;;1.17;;
7406;SDS011;3745;56.964;24.128;2023-03-13T01:00:26;2.17;;;1.40;;
7406;SDS011;3745;56.964;24.128;2023-03-13T01:02:52;2.50;;;1.30;;
7406;SDS011;3745;56.964;24.128;2023-03-13T01:05:17;2.03;;;1.20;;
7406;SDS011;3745;56.964;24.128;2023-03-13T01:07:43;1.70;;;1.60;;
7406;SDS011;3745;56.964;24.128;2023-03-13T01:10:09;1.30;;;1.20;;
7406;SDS011;3745;56.964;24.128;2023-03-13T01:12:34;1.17;;;1.00;;
7406;SDS011;3745;56.964;24.128;2023-03-13T01:15:00;1.23;;;1.13;;
7406;SDS011;3745;56.964;24.128;2023-03-13T01:17:26;1.90;;;1.53;;
7406;SDS011;3745;56.964;24.128;2023-03-13T01:19:54;1.97;;;0.93;;
7406;SDS011;3745;56.964;24.128;2023-03-13T01:22:20;2.20;;;1.03;;
7406;SDS011;3745;56.964;24.128;2023-03-13T01:24:46;3.07;;;1.07;;
7406;SDS011;3745;56.964;24.128;2023-03-13T01:27:16;1.20;;;1.20;;
7406;SDS011;3745;56.964;24.128;2023-03-13T01:29:42;1.33;;;1.10;;
7406;SDS011;3745;56.964;24.128;2023-03-13T01:32:07;1.93;;;1.23;;
7406;SDS011;3745;56.964;24.128;2023-03-13T01:34:33;4.83;;;1.40;;
7406;SDS011;3745;56.964;24.128;2023-03-13T01:36:59;3.87;;;1.63;;
7406;SDS011;3745;56.964;24.128;2023-03-13T01:39:25;1.50;;;1.40;;
7406;SDS011;3745;56.964;24.128;2023-03-13T01:41:50;1.70;;;1.60;;
7406;SDS011;3745;56.964;24.128;2023-03-13T01:44:20;1.43;;;1.17;;
7406;SDS011;3745;56.964;24.128;2023-03-13T01:46:48;3.23;;;1.13;;
7406;SDS011;3745;56.964;24.128;2023-03-13T01:49:19;1.73;;;1.63;;
7406;SDS011;3745;56.964;24.128;2023-03-13T01:57:04;1.83;;;1.70;;
7406;SDS011;3745;56.964;24.128;2023-03-13T01:59:39;2.30;;;1.20;;
7406;SDS011;3745;56.964;24.128;2023-03-13T02:02:10;1.40;;;1.30;;
7406;SDS011;3745;56.964;24.128;2023-03-13T02:04:41;1.90;;;1.73;;
7406;SDS011;3745;56.964;24.128;2023-03-13T02:07:17;4.10;;;1.40;;
7406;SDS011;3745;56.964;24.128;2023-03-13T02:09:49;2.73;;;1.67;;
7406;SDS011;3745;56.964;24.128;2023-03-13T02:12:39;1.50;;;1.40;;
7406;SDS011;3745;56.964;24.128;2023-03-13T02:15:06;2.30;;;1.47;;
7406;SDS011;3745;56.964;24.128;2023-03-13T02:17:34;3.50;;;1.37;;
7406;SDS011;3745;56.964;24.128;2023-03-13T02:20:00;3.30;;;1.57;;
7406;SDS011;3745;56.964;24.128;2023-03-13T02:27:49;6.20;;;1.90;;
7406;SDS011;3745;56.964;24.128;2023-03-13T02:30:18;1.67;;;1.53;;
7406;SDS011;3745;56.964;24.128;2023-03-13T02:32:44;4.07;;;1.87;;
7406;SDS011;3745;56.964;24.128;2023-03-13T02:35:11;2.27;;;1.77;;
7406;SDS011;3745;56.964;24.128;2023-03-13T02:37:40;1.60;;;1.50;;
7406;SDS011;3745;56.964;24.128;2023-03-13T02:40:12;3.33;;;1.90;;
7406;SDS011;3745;56.964;24.128;2023-03-13T02:42:42;2.87;;;1.50;;
7406;SDS011;3745;56.964;24.128;2023-03-13T02:45:12;1.70;;;1.60;;
7406;SDS011;3745;56.964;24.128;2023-03-13T02:47:39;3.37;;;1.90;;
7406;SDS011;3745;56.964;24.128;2023-03-13T02:50:04;2.33;;;2.10;;
7406;SDS011;3745;56.964;24.128;2023-03-13T02:52:31;2.30;;;1.90;;
7406;SDS011;3745;56.964;24.128;2023-03-13T02:55:06;2.60;;;2.00;;
7406;SDS011;3745;56.964;24.128;2023-03-13T02:57:36;2.10;;;1.90;;
7406;SDS011;3745;56.964;24.128;2023-03-13T03:00:02;2.47;;;1.93;;
7406;SDS011;3745;56.964;24.128;2023-03-13T03:02:31;4.97;;;2.30;;
7406;SDS011;3745;56.964;24.128;2023-03-13T03:04:56;3.33;;;1.93;;
7406;SDS011;3745;56.964;24.128;2023-03-13T03:07:22;1.93;;;1.80;;
7406;SDS011;3745;56.964;24.128;2023-03-13T03:09:47;3.73;;;2.40;;
7406;SDS011;3745;56.964;24.128;2023-03-13T03:12:13;3.30;;;1.90;;
7406;SDS011;3745;56.964;24.128;2023-03-13T03:14:38;3.23;;;2.17;;
7406;SDS011;3745;56.964;24.128;2023-03-13T03:17:04;3.17;;;2.00;;
7406;SDS011;3745;56.964;24.128;2023-03-13T03:19:30;2.60;;;1.83;;
7406;SDS011;3745;56.964;24.128;2023-03-13T03:21:55;7.60;;;1.83;;
7406;SDS011;3745;56.964;24.128;2023-03-13T03:24:21;3.90;;;1.57;;
7406;SDS011;3745;56.964;24.128;2023-03-13T03:26:46;3.37;;;1.77;;
7406;SDS011;3745;56.964;24.128;2023-03-13T03:29:12;2.07;;;1.57;;
7406;SDS011;3745;56.964;24.128;2023-03-13T03:31:38;3.70;;;1.70;;
7406;SDS011;3745;56.964;24.128;2023-03-13T03:34:03;2.97;;;1.80;;
7406;SDS011;3745;56.964;24.128;2023-03-13T03:36:29;1.80;;;1.70;;
7406;SDS011;3745;56.964;24.128;2023-03-13T03:38:54;3.67;;;1.63;;
7406;SDS011;3745;56.964;24.128;2023-03-13T03:41:20;2.57;;;1.70;;
7406;SDS011;3745;56.964;24.128;2023-03-13T03:43:46;5.20;;;1.93;;
7406;SDS011;3745;56.964;24.128;2023-03-13T03:46:13;3.63;;;2.00;;
7406;SDS011;3745;56.964;24.128;2023-03-13T03:48:39;1.90;;;1.77;;
7406;SDS011;3745;56.964;24.128;2023-03-13T03:51:05;4.83;;;1.97;;
7406;SDS011;3745;56.964;24.128;2023-03-13T03:53:31;2.77;;;1.70;;
7406;SDS011;3745;56.964;24.128;2023-03-13T03:55:57;1.90;;;1.50;;
7406;SDS011;3745;56.964;24.128;2023-03-13T03:58:23;4.23;;;2.07;;
7406;SDS011;3745;56.964;24.128;2023-03-13T04:00:49;1.90;;;1.80;;
7406;SDS011;3745;56.964;24.128;2023-03-13T04:03:14;2.57;;;1.70;;
7406;SDS011;3745;56.964;24.128;2023-03-13T04:05:41;2.07;;;1.87;;
7406;SDS011;3745;56.964;24.128;2023-03-13T04:08:07;1.80;;;1.37;;
7406;SDS011;3745;56.964;24.128;2023-03-13T04:10:34;2.90;;;2.20;;
7406;SDS011;3745;56.964;24.128;2023-03-13T04:12:59;5.67;;;2.20;;
7406;SDS011;3745;56.964;24.128;2023-03-13T04:15:25;5.53;;;2.00;;
7406;SDS011;3745;56.964;24.128;2023-03-13T04:17:51;2.33;;;1.97;;
7406;SDS011;3745;56.964;24.128;2023-03-13T04:20:16;3.17;;;2.13;;
7406;SDS011;3745;56.964;24.128;2023-03-13T04:22:42;2.97;;;1.90;;
7406;SDS011;3745;56.964;24.128;2023-03-13T04:25:08;2.30;;;1.83;;
7406;SDS011;3745;56.964;24.128;2023-03-13T04:27:34;2.30;;;2.10;;
7406;SDS011;3745;56.964;24.128;2023-03-13T04:30:00;2.47;;;2.20;;
7406;SDS011;3745;56.964;24.128;2023-03-13T04:32:26;2.30;;;2.10;;
7406;SDS011;3745;56.964;24.128;2023-03-13T04:34:51;4.50;;;1.90;;
7406;SDS011;3745;56.964;24.128;2023-03-13T04:37:17;4.03;;;1.93;;
7406;SDS011;3745;56.964;24.128;2023-03-13T04:39:43;2.80;;;2.20;;
7406;SDS011;3745;56.964;24.128;2023-03-13T04:42:09;4.87;;;1.97;;
7406;SDS011;3745;56.964;24.128;2023-03-13T04:44:36;2.97;;;2.17;;
7406;SDS011;3745;56.964;24.128;2023-03-13T04:47:02;6.13;;;2.90;;
7406;SDS011;3745;56.964;24.128;2023-03-13T04:49:29;5.30;;;3.10;;
7406;SDS011;3745;56.964;24.128;2023-03-13T04:51:54;4.30;;;2.67;;
7406;SDS011;3745;56.964;24.128;2023-03-13T04:54:20;4.00;;;2.87;;
7406;SDS011;3745;56.964;24.128;2023-03-13T04:56:46;7.60;;;3.27;;
7406;SDS011;3745;56.964;24.128;2023-03-13T04:59:12;6.07;;;2.87;;
7406;SDS011;3745;56.964;24.128;2023-03-13T05:01:39;6.07;;;2.43;;
7406;SDS011;3745;56.964;24.128;2023-03-13T05:04:05;3.43;;;2.70;;
7406;SDS011;3745;56.964;24.128;2023-03-13T05:06:31;6.40;;;2.97;;
7406;SDS011;3745;56.964;24.128;2023-03-13T05:08:57;5.50;;;2.80;;
7406;SDS011;3745;56.964;24.128;2023-03-13T05:11:23;6.90;;;3.17;;
7406;SDS011;3745;56.964;24.128;2023-03-13T05:13:48;5.43;;;3.00;;
7406;SDS011;3745;56.964;24.128;2023-03-13T05:16:14;4.60;;;2.80;;
7406;SDS011;3745;56.964;24.128;2023-03-13T05:18:40;4.17;;;3.30;;
7406;SDS011;3745;56.964;24.128;2023-03-13T05:21:05;5.27;;;2.70;;
7406;SDS011;3745;56.964;24.128;2023-03-13T05:23:31;3.30;;;2.50;;
7406;SDS011;3745;56.964;24.128;2023-03-13T05:25:58;3.67;;;2.80;;
7406;SDS011;3745;56.964;24.128;2023-03-13T05:28:23;3.93;;;3.40;;
7406;SDS011;3745;56.964;24.128;2023-03-13T05:30:49;4.00;;;3.40;;
7406;SDS011;3745;56.964;24.128;2023-03-13T05:33:15;3.67;;;3.13;;
7406;SDS011;3745;56.964;24.128;2023-03-13T05:35:41;7.23;;;2.60;;
7406;SDS011;3745;56.964;24.128;2023-03-13T05:38:07;3.70;;;2.73;;
7406;SDS011;3745;56.964;24.128;2023-03-13T05:40:33;5.40;;;3.30;;
7406;SDS011;3745;56.964;24.128;2023-03-13T05:42:59;3.43;;;3.10;;
7406;SDS011;3745;56.964;24.128;2023-03-13T05:45:24;4.43;;;3.67;;
7406;SDS011;3745;56.964;24.128;2023-03-13T05:47:50;7.00;;;3.40;;
7406;SDS011;3745;56.964;24.128;2023-03-13T05:50:16;8.73;;;3.80;;
7406;SDS011;3745;56.964;24.128;2023-03-13T05:52:41;7.07;;;3.40;;
7406;SDS011;3745;56.964;24.128;2023-03-13T05:55:07;3.93;;;2.83;;
7406;SDS011;3745;56.964;24.128;2023-03-13T05:57:33;5.90;;;2.90;;
7406;SDS011;3745;56.964;24.128;2023-03-13T05:59:58;5.27;;;2.70;;
7406;SDS011;3745;56.964;24.128;2023-03-13T06:02:24;6.23;;;3.40;;
7406;SDS011;3745;56.964;24.128;2023-03-13T06:04:50;6.40;;;3.70;;
7406;SDS011;3745;56.964;24.128;2023-03-13T06:07:15;4.97;;;3.37;;
7406;SDS011;3745;56.964;24.128;2023-03-13T06:09:41;6.17;;;3.57;;
7406;SDS011;3745;56.964;24.128;2023-03-13T06:12:07;6.50;;;3.03;;
7406;SDS011;3745;56.964;24.128;2023-03-13T06:14:34;6.80;;;3.20;;
7406;SDS011;3745;56.964;24.128;2023-03-13T06:17:00;7.43;;;3.63;;
7406;SDS011;3745;56.964;24.128;2023-03-13T06:19:25;6.73;;;2.90;;
7406;SDS011;3745;56.964;24.128;2023-03-13T06:21:51;5.70;;;3.60;;
7406;SDS011;3745;56.964;24.128;2023-03-13T06:24:17;6.00;;;3.17;;
7406;SDS011;3745;56.964;24.128;2023-03-13T06:26:42;8.03;;;3.60;;
7406;SDS011;3745;56.964;24.128;2023-03-13T06:29:09;4.73;;;3.10;;
7406;SDS011;3745;56.964;24.128;2023-03-13T06:31:35;5.60;;;3.50;;
7406;SDS011;3745;56.964;24.128;2023-03-13T06:34:01;3.53;;;2.67;;
7406;SDS011;3745;56.964;24.128;2023-03-13T06:36:26;4.20;;;3.13;;
7406;SDS011;3745;56.964;24.128;2023-03-13T06:38:52;4.93;;;3.03;;
7406;SDS011;3745;56.964;24.128;2023-03-13T06:41:18;5.07;;;3.50;;
7406;SDS011;3745;56.964;24.128;2023-03-13T06:43:43;6.30;;;3.37;;
7406;SDS011;3745;56.964;24.128;2023-03-13T06:46:15;5.87;;;2.87;;
7406;SDS011;3745;56.964;24.128;2023-03-13T06:48:43;10.10;;;3.40;;
7406;SDS011;3745;56.964;24.128;2023-03-13T06:51:12;12.50;;;4.33;;
7406;SDS011;3745;56.964;24.128;2023-03-13T06:53:39;6.50;;;3.87;;
7406;SDS011;3745;56.964;24.128;2023-03-13T06:56:04;7.03;;;4.17;;
7406;SDS011;3745;56.964;24.128;2023-03-13T06:58:31;6.63;;;3.87;;
7406;SDS011;3745;56.964;24.128;2023-03-13T07:00:57;5.70;;;3.70;;
7406;SDS011;3745;56.964;24.128;2023-03-13T07:03:23;8.53;;;4.20;;
7406;SDS011;3745;56.964;24.128;2023-03-13T07:05:53;7.47;;;4.10;;
7406;SDS011;3745;56.964;24.128;2023-03-13T07:08:23;12.70;;;4.93;;
7406;SDS011;3745;56.964;24.128;2023-03-13T07:10:52;9.17;;;4.17;;
7406;SDS011;3745;56.964;24.128;2023-03-13T07:13:22;12.33;;;4.17;;
7406;SDS011;3745;56.964;24.128;2023-03-13T07:15:48;8.30;;;3.93;;
7406;SDS011;3745;56.964;24.128;2023-03-13T07:18:13;6.67;;;4.00;;
7406;SDS011;3745;56.964;24.128;2023-03-13T07:20:39;6.73;;;4.20;;
7406;SDS011;3745;56.964;24.128;2023-03-13T07:23:05;7.97;;;3.50;;
7406;SDS011;3745;56.964;24.128;2023-03-13T07:25:30;5.70;;;3.70;;
7406;SDS011;3745;56.964;24.128;2023-03-13T07:27:56;9.07;;;4.53;;
7406;SDS011;3745;56.964;24.128;2023-03-13T07:30:21;9.50;;;4.70;;
7406;SDS011;3745;56.964;24.128;2023-03-13T07:32:47;11.23;;;4.57;;
7406;SDS011;3745;56.964;24.128;2023-03-13T07:35:13;6.50;;;3.50;;
7406;SDS011;3745;56.964;24.128;2023-03-13T07:37:39;5.63;;;3.80;;
7406;SDS011;3745;56.964;24.128;2023-03-13T07:40:05;5.90;;;3.33;;
7406;SDS011;3745;56.964;24.128;2023-03-13T07:42:33;11.57;;;3.67;;
7406;SDS011;3745;56.964;24.128;2023-03-13T07:44:59;7.70;;;3.63;;
7406;SDS011;3745;56.964;24.128;2023-03-13T07:47:24;8.77;;;3.20;;
7406;SDS011;3745;56.964;24.128;2023-03-13T07:49:50;4.70;;;2.90;;
7406;SDS011;3745;56.964;24.128;2023-03-13T07:52:15;6.67;;;3.30;;
7406;SDS011;3745;56.964;24.128;2023-03-13T07:54:42;14.73;;;3.63;;
7406;SDS011;3745;56.964;24.128;2023-03-13T07:57:08;7.00;;;3.47;;
7406;SDS011;3745;56.964;24.128;2023-03-13T07:59:33;8.57;;;3.50;;
7406;SDS011;3745;56.964;24.128;2023-03-13T08:01:59;6.43;;;3.43;;
7406;SDS011;3745;56.964;24.128;2023-03-13T08:04:24;6.37;;;3.33;;
7406;SDS011;3745;56.964;24.128;2023-03-13T08:06:50;4.43;;;2.83;;
7406;SDS011;3745;56.964;24.128;2023-03-13T08:09:16;7.07;;;2.80;;
7406;SDS011;3745;56.964;24.128;2023-03-13T08:11:41;4.87;;;2.93;;
7406;SDS011;3745;56.964;24.128;2023-03-13T08:14:08;8.07;;;3.23;;
7406;SDS011;3745;56.964;24.128;2023-03-13T08:16:34;7.70;;;3.13;;
7406;SDS011;3745;56.964;24.128;2023-03-13T08:19:01;6.53;;;3.10;;
7406;SDS011;3745;56.964;24.128;2023-03-13T08:21:31;5.60;;;3.10;;
7406;SDS011;3745;56.964;24.128;2023-03-13T08:23:59;4.72;;;3.25;;
7406;SDS011;3745;56.964;24.128;2023-03-13T08:26:30;3.17;;;2.53;;
7406;SDS011;3745;56.964;24.128;2023-03-13T08:28:57;6.95;;;2.75;;
7406;SDS011;3745;56.964;24.128;2023-03-13T08:31:25;4.65;;;2.78;;
7406;SDS011;3745;56.964;24.128;2023-03-13T08:33:53;3.45;;;2.80;;
7406;SDS011;3745;56.964;24.128;2023-03-13T08:36:26;5.18;;;3.30;;
7406;SDS011;3745;56.964;24.128;2023-03-13T08:39:03;3.17;;;2.45;;
7406;SDS011;3745;56.964;24.128;2023-03-13T08:41:31;6.78;;;3.65;;
7406;SDS011;3745;56.964;24.128;2023-03-13T08:44:00;6.50;;;3.45;;
7406;SDS011;3745;56.964;24.128;2023-03-13T08:46:28;10.27;;;4.28;;
7406;SDS011;3745;56.964;24.128;2023-03-13T08:48:55;8.40;;;4.47;;
7406;SDS011;3745;56.964;24.128;2023-03-13T08:51:22;9.70;;;4.18;;
7406;SDS011;3745;56.964;24.128;2023-03-13T08:53:49;7.50;;;4.35;;
7406;SDS011;3745;56.964;24.128;2023-03-13T08:56:16;19.08;;;4.80;;
7406;SDS011;3745;56.964;24.128;2023-03-13T08:58:43;5.00;;;3.85;;
7406;SDS011;3745;56.964;24.128;2023-03-13T09:01:13;6.30;;;3.60;;
7406;SDS011;3745;56.964;24.128;2023-03-13T09:03:39;8.30;;;3.90;;
7406;SDS011;3745;56.964;24.128;2023-03-13T09:06:06;6.60;;;3.15;;
7406;SDS011;3745;56.964;24.128;2023-03-13T09:08:33;7.97;;;4.15;;
7406;SDS011;3745;56.964;24.128;2023-03-13T09:11:02;12.55;;;4.28;;
7406;SDS011;3745;56.964;24.128;2023-03-13T09:13:33;13.68;;;4.47;;
7406;SDS011;3745;56.964;24.128;2023-03-13T09:16:02;13.38;;;4.15;;
7406;SDS011;3745;56.964;24.128;2023-03-13T09:18:32;9.48;;;4.38;;
7406;SDS011;3745;56.964;24.128;2023-03-13T09:20:58;7.82;;;4.40;;
7406;SDS011;3745;56.964;24.128;2023-03-13T09:23:25;9.13;;;3.90;;
7406;SDS011;3745;56.964;24.128;2023-03-13T09:25:54;9.48;;;4.57;;
7406;SDS011;3745;56.964;24.128;2023-03-13T09:28:21;6.85;;;4.57;;
7406;SDS011;3745;56.964;24.128;2023-03-13T09:30:48;10.77;;;5.13;;
7406;SDS011;3745;56.964;24.128;2023-03-13T09:33:14;8.57;;;4.57;;
7406;SDS011;3745;56.964;24.128;2023-03-13T09:35:41;8.57;;;4.50;;
7406;SDS011;3745;56.964;24.128;2023-03-13T09:38:06;10.25;;;4.20;;
7406;SDS011;3745;56.964;24.128;2023-03-13T09:40:44;9.40;;;4.47;;
7406;SDS011;3745;56.964;24.128;2023-03-13T09:43:17;6.35;;;4.10;;
7406;SDS011;3745;56.964;24.128;2023-03-13T09:45:51;7.20;;;4.88;;
7406;SDS011;3745;56.964;24.128;2023-03-13T09:48:27;9.32;;;4.15;;
7406;SDS011;3745;56.964;24.128;2023-03-13T09:51:17;8.55;;;4.40;;
7406;SDS011;3745;56.964;24.128;2023-03-13T09:56:55;5.45;;;3.97;;
7406;SDS011;3745;56.964;24.128;2023-03-13T09:59:43;5.30;;;3.75;;
7406;SDS011;3745;56.964;24.128;2023-03-13T10:02:27;9.13;;;4.70;;
7406;SDS011;3745;56.964;24.128;2023-03-13T10:04:59;9.82;;;4.47;;
7406;SDS011;3745;56.964;24.128;2023-03-13T10:07:37;8.98;;;4.30;;
7406;SDS011;3745;56.964;24.128;2023-03-13T10:10:05;7.82;;;4.32;;
7406;SDS011;3745;56.964;24.128;2023-03-13T10:12:38;8.85;;;4.30;;
7406;SDS011;3745;56.964;24.128;2023-03-13T10:18:18;8.32;;;4.50;;
7406;SDS011;3745;56.964;24.128;2023-03-13T10:20:50;8.13;;;3.85;;
7406;SDS011;3745;56.964;24.128;2023-03-13T10:23:34;9.63;;;4.50;;
7406;SDS011;3745;56.964;24.128;2023-03-13T10:26:26;10.52;;;4.75;;
7406;SDS011;3745;56.964;24.128;2023-03-13T10:28:56;7.97;;;4.70;;
7406;SDS011;3745;56.964;24.128;2023-03-13T10:31:26;9.02;;;4.97;;
7406;SDS011;3745;56.964;24.128;2023-03-13T10:34:07;10.10;;;4.20;;
7406;SDS011;3745;56.964;24.128;2023-03-13T10:36:41;12.20;;;5.13;;
7406;SDS011;3745;56.964;24.128;2023-03-13T10:39:16;4.90;;;3.67;;
7406;SDS011;3745;56.964;24.128;2023-03-13T10:41:42;7.93;;;4.15;;
7406;SDS011;3745;56.964;24.128;2023-03-13T10:44:51;9.43;;;4.05;;
7406;SDS011;3745;56.964;24.128;2023-03-13T10:46:58;7.00;;;3.80;;
7406;SDS011;3745;56.964;24.128;2023-03-13T10:49:27;7.55;;;3.72;;
7406;SDS011;3745;56.964;24.128;2023-03-13T10:51:55;8.90;;;3.63;;
7406;SDS011;3745;56.964;24.128;2023-03-13T10:54:28;4.38;;;3.50;;
7406;SDS011;3745;56.964;24.128;2023-03-13T10:59:47;5.95;;;3.35;;
7406;SDS011;3745;56.964;24.128;2023-03-13T11:02:28;6.25;;;3.70;;
7406;SDS011;3745;56.964;24.128;2023-03-13T11:08:11;7.78;;;4.22;;
7406;SDS011;3745;56.964;24.128;2023-03-13T11:11:04;12.77;;;4.00;;
7406;SDS011;3745;56.964;24.128;2023-03-13T11:13:40;7.53;;;3.30;;
7406;SDS011;3745;56.964;24.128;2023-03-13T11:27:31;8.30;;;4.53;;
7406;SDS011;3745;56.964;24.128;2023-03-13T11:35:59;8.00;;;4.20;;
7406;SDS011;3745;56.964;24.128;2023-03-13T11:38:52;8.75;;;4.97;;
7406;SDS011;3745;56.964;24.128;2023-03-13T11:41:42;7.63;;;4.80;;
7406;SDS011;3745;56.964;24.128;2023-03-13T11:44:22;8.85;;;4.82;;
7406;SDS011;3745;56.964;24.128;2023-03-13T11:55:18;9.07;;;5.20;;
7406;SDS011;3745;56.964;24.128;2023-03-13T12:00:39;10.15;;;5.43;;
7406;SDS011;3745;56.964;24.128;2023-03-13T12:05:55;7.35;;;4.78;;
7406;SDS011;3745;56.964;24.128;2023-03-13T12:11:21;15.20;;;5.65;;
7406;SDS011;3745;56.964;24.128;2023-03-13T12:13:59;8.45;;;5.20;;
7406;SDS011;3745;56.964;24.128;2023-03-13T12:16:43;11.40;;;5.82;;
7406;SDS011;3745;56.964;24.128;2023-03-13T12:19:16;10.02;;;5.47;;
7406;SDS011;3745;56.964;24.128;2023-03-13T12:21:51;11.30;;;5.35;;
7406;SDS011;3745;56.964;24.128;2023-03-13T12:27:12;6.72;;;5.05;;
7406;SDS011;3745;56.964;24.128;2023-03-13T12:29:52;9.37;;;6.03;;
7406;SDS011;3745;56.964;24.128;2023-03-13T12:32:25;10.18;;;5.90;;
7406;SDS011;3745;56.964;24.128;2023-03-13T12:40:37;8.32;;;5.20;;
7406;SDS011;3745;56.964;24.128;2023-03-13T12:43:10;6.72;;;4.82;;
7406;SDS011;3745;56.964;24.128;2023-03-13T12:48:32;8.43;;;5.22;;
7406;SDS011;3745;56.964;24.128;2023-03-13T13:01:46;9.13;;;5.35;;
7406;SDS011;3745;56.964;24.128;2023-03-13T13:07:06;9.10;;;5.38;;
7406;SDS011;3745;56.964;24.128;2023-03-13T13:12:37;15.02;;;7.03;;
7406;SDS011;3745;56.964;24.128;2023-03-13T13:15:26;11.82;;;7.20;;
7406;SDS011;3745;56.964;24.128;2023-03-13T13:20:26;8.82;;;5.72;;
7406;SDS011;3745;56.964;24.128;2023-03-13T13:23:24;13.70;;;6.75;;
7406;SDS011;3745;56.964;24.128;2023-03-13T13:25:53;9.13;;;5.75;;
7406;SDS011;3745;56.964;24.128;2023-03-13T13:30:57;12.65;;;7.40;;
7406;SDS011;3745;56.964;24.128;2023-03-13T13:36:40;12.68;;;7.35;;
7406;SDS011;3745;56.964;24.128;2023-03-13T13:38:45;15.88;;;7.40;;
7406;SDS011;3745;56.964;24.128;2023-03-13T13:43:41;15.70;;;9.18;;
7406;SDS011;3745;56.964;24.128;2023-03-13T13:46:24;15.98;;;8.60;;
7406;SDS011;3745;56.964;24.128;2023-03-13T13:49:07;14.38;;;8.10;;
7406;SDS011;3745;56.964;24.128;2023-03-13T13:57:14;14.35;;;7.57;;
7406;SDS011;3745;56.964;24.128;2023-03-13T14:02:50;14.30;;;7.93;;
7406;SDS011;3745;56.964;24.128;2023-03-13T14:05:27;15.57;;;9.43;;
7406;SDS011;3745;56.964;24.128;2023-03-13T14:07:57;15.20;;;7.60;;
7406;SDS011;3745;56.964;24.128;2023-03-13T14:10:45;12.63;;;7.82;;
7406;SDS011;3745;56.964;24.128;2023-03-13T14:13:35;15.52;;;8.10;;
7406;SDS011;3745;56.964;24.128;2023-03-13T14:16:13;14.95;;;7.65;;
7406;SDS011;3745;56.964;24.128;2023-03-13T14:18:48;13.75;;;8.02;;
7406;SDS011;3745;56.964;24.128;2023-03-13T14:21:19;15.73;;;8.82;;
7406;SDS011;3745;56.964;24.128;2023-03-13T14:23:46;13.40;;;8.63;;
7406;SDS011;3745;56.964;24.128;2023-03-13T14:26:14;15.10;;;8.25;;
7406;SDS011;3745;56.964;24.128;2023-03-13T14:29:00;18.70;;;8.45;;
7406;SDS011;3745;56.964;24.128;2023-03-13T14:31:35;15.00;;;8.07;;
7406;SDS011;3745;56.964;24.128;2023-03-13T14:34:03;12.07;;;7.35;;
7406;SDS011;3745;56.964;24.128;2023-03-13T14:36:44;14.38;;;7.93;;
7406;SDS011;3745;56.964;24.128;2023-03-13T14:39:16;16.00;;;8.15;;
7406;SDS011;3745;56.964;24.128;2023-03-13T14:42:01;15.20;;;7.97;;
7406;SDS011;3745;56.964;24.128;2023-03-13T14:44:28;13.07;;;8.38;;
7406;SDS011;3745;56.964;24.128;2023-03-13T14:46:58;17.35;;;8.98;;
7406;SDS011;3745;56.964;24.128;2023-03-13T14:49:28;17.52;;;8.60;;
7406;SDS011;3745;56.964;24.128;2023-03-13T14:51:57;15.65;;;8.48;;
7406;SDS011;3745;56.964;24.128;2023-03-13T14:54:54;17.27;;;8.80;;
7406;SDS011;3745;56.964;24.128;2023-03-13T14:57:23;17.30;;;8.85;;
7406;SDS011;3745;56.964;24.128;2023-03-13T14:59:51;18.58;;;8.65;;
7406;SDS011;3745;56.964;24.128;2023-03-13T15:02:22;16.27;;;8.60;;
7406;SDS011;3745;56.964;24.128;2023-03-13T15:07:19;19.80;;;9.55;;
7406;SDS011;3745;56.964;24.128;2023-03-13T15:09:45;13.60;;;8.48;;
7406;SDS011;3745;56.964;24.128;2023-03-13T15:12:13;14.30;;;9.03;;
7406;SDS011;3745;56.964;24.128;2023-03-13T15:14:42;14.57;;;8.13;;
7406;SDS011;3745;56.964;24.128;2023-03-13T15:17:14;15.45;;;9.82;;
7406;SDS011;3745;56.964;24.128;2023-03-13T15:19:42;15.27;;;9.00;;
7406;SDS011;3745;56.964;24.128;2023-03-13T15:22:12;13.57;;;9.15;;
7406;SDS011;3745;56.964;24.128;2023-03-13T15:24:40;16.23;;;8.98;;
7406;SDS011;3745;56.964;24.128;2023-03-13T15:27:12;14.75;;;8.70;;
7406;SDS011;3745;56.964;24.128;2023-03-13T15:29:39;15.32;;;9.13;;
7406;SDS011;3745;56.964;24.128;2023-03-13T15:32:07;16.50;;;9.48;;
7406;SDS011;3745;56.964;24.128;2023-03-13T15:34:36;14.27;;;9.77;;
7406;SDS011;3745;56.964;24.128;2023-03-13T15:37:01;18.70;;;9.97;;
7406;SDS011;3745;56.964;24.128;2023-03-13T15:39:27;16.15;;;9.93;;
7406;SDS011;3745;56.964;24.128;2023-03-13T15:41:53;15.20;;;10.20;;
7406;SDS011;3745;56.964;24.128;2023-03-13T15:44:18;20.77;;;12.07;;
7406;SDS011;3745;56.964;24.128;2023-03-13T15:46:44;16.75;;;10.15;;
7406;SDS011;3745;56.964;24.128;2023-03-13T15:49:10;20.35;;;10.73;;
7406;SDS011;3745;56.964;24.128;2023-03-13T15:51:37;16.70;;;9.48;;
7406;SDS011;3745;56.964;24.128;2023-03-13T15:54:02;17.73;;;10.55;;
7406;SDS011;3745;56.964;24.128;2023-03-13T15:56:29;16.33;;;9.05;;
7406;SDS011;3745;56.964;24.128;2023-03-13T15:59:00;18.20;;;9.60;;
7406;SDS011;3745;56.964;24.128;2023-03-13T16:01:26;16.13;;;10.15;;
7406;SDS011;3745;56.964;24.128;2023-03-13T16:03:52;19.88;;;10.65;;
7406;SDS011;3745;56.964;24.128;2023-03-13T16:06:19;23.02;;;11.15;;
7406;SDS011;3745;56.964;24.128;2023-03-13T16:08:54;17.52;;;10.73;;
7406;SDS011;3745;56.964;24.128;2023-03-13T16:11:20;19.88;;;10.07;;
7406;SDS011;3745;56.964;24.128;2023-03-13T16:13:47;19.77;;;10.88;;
7406;SDS011;3745;56.964;24.128;2023-03-13T16:16:17;18.75;;;10.68;;
7406;SDS011;3745;56.964;24.128;2023-03-13T16:18:46;20.40;;;10.68;;
7406;SDS011;3745;56.964;24.128;2023-03-13T16:21:14;18.77;;;10.50;;
7406;SDS011;3745;56.964;24.128;2023-03-13T16:23:45;16.25;;;9.50;;
7406;SDS011;3745;56.964;24.128;2023-03-13T16:26:16;16.13;;;10.13;;
7406;SDS011;3745;56.964;24.128;2023-03-13T16:28:43;19.38;;;10.43;;
7406;SDS011;3745;56.964;24.128;2023-03-13T16:31:14;19.90;;;10.87;;
7406;SDS011;3745;56.964;24.128;2023-03-13T16:33:43;19.10;;;9.63;;
7406;SDS011;3745;56.964;24.128;2023-03-13T16:36:18;18.03;;;10.73;;
7406;SDS011;3745;56.964;24.128;2023-03-13T16:38:46;17.52;;;10.82;;
7406;SDS011;3745;56.964;24.128;2023-03-13T16:41:16;17.05;;;10.43;;
7406;SDS011;3745;56.964;24.128;2023-03-13T16:43:44;19.42;;;10.50;;
7406;SDS011;3745;56.964;24.128;2023-03-13T16:46:11;21.88;;;12.43;;
7406;SDS011;3745;56.964;24.128;2023-03-13T16:49:00;20.90;;;12.02;;
7406;SDS011;3745;56.964;24.128;2023-03-13T16:51:26;19.38;;;11.10;;
7406;SDS011;3745;56.964;24.128;2023-03-13T16:53:53;14.02;;;9.57;;
7406;SDS011;3745;56.964;24.128;2023-03-13T16:58:59;18.48;;;9.98;;